createdAt,value
2022-09-13T00:00:26.475Z,90.50
2022-09-13T00:03:30.796Z,90.50
2022-09-13T00:06:20.910Z,90.50
2022-09-13T00:09:09.670Z,90.50
2022-09-13T00:11:58.028Z,90.50
2022-09-13T00:14:46.728Z,90.50
2022-09-13T00:17:36.706Z,90.50
2022-09-13T00:20:25.371Z,90.50
2022-09-13T00:23:14.201Z,90.50
2022-09-13T00:26:10.687Z,90.50
2022-09-13T00:29:00.124Z,90.50
2022-09-13T00:31:49.050Z,90.50
2022-09-13T00:34:39.500Z,90.50
2022-09-13T00:37:28.034Z,90.50
2022-09-13T00:40:16.820Z,90.50
2022-09-13T00:43:04.824Z,90.50
2022-09-13T00:45:53.565Z,90.50
2022-09-13T00:48:42.548Z,90.50
2022-09-13T00:51:33.503Z,90.50
2022-09-13T00:54:25.218Z,90.50
2022-09-13T00:57:15.590Z,90.50
2022-09-13T01:00:11.034Z,90.50
2022-09-13T01:03:03.548Z,90.50
2022-09-13T01:05:55.832Z,90.50
2022-09-13T01:08:50.583Z,90.50
2022-09-13T01:11:47.289Z,90.50
2022-09-13T01:14:37.434Z,90.50
2022-09-13T01:17:27.208Z,90.50
2022-09-13T01:20:16.755Z,90.50
2022-09-13T01:23:52.064Z,90.50
2022-09-13T01:27:20.946Z,90.50
2022-09-13T01:30:19.303Z,90.40
2022-09-13T01:33:41.859Z,90.40
2022-09-13T01:37:03.479Z,90.50
2022-09-13T01:40:00.554Z,90.50
2022-09-13T01:43:03.729Z,90.50
2022-09-13T01:46:04.021Z,90.40
2022-09-13T01:48:58.018Z,90.50
2022-09-13T01:51:51.368Z,90.40
2022-09-13T01:54:49.425Z,90.50
2022-09-13T01:57:45.095Z,90.50
2022-09-13T02:00:39.870Z,90.50
2022-09-13T02:03:34.663Z,90.50
2022-09-13T02:06:27.803Z,90.50
2022-09-13T02:09:21.486Z,90.50
2022-09-13T02:12:15.631Z,90.50
2022-09-13T02:15:09.968Z,90.50
2022-09-13T02:18:07.107Z,90.50
2022-09-13T02:21:02.164Z,90.50
2022-09-13T02:23:53.791Z,90.50
2022-09-13T02:26:43.260Z,90.50
2022-09-13T02:29:33.816Z,90.50
2022-09-13T02:32:26.595Z,90.50
2022-09-13T02:35:20.056Z,90.50
2022-09-13T02:38:14.525Z,90.50
2022-09-13T02:41:11.099Z,90.50
2022-09-13T02:44:06.619Z,90.50
2022-09-13T02:47:12.211Z,90.50
2022-09-13T02:50:13.412Z,90.50
2022-09-13T02:53:09.216Z,90.50
2022-09-13T02:56:06.443Z,90.50
2022-09-13T02:59:02.999Z,90.50
2022-09-13T03:01:56.456Z,90.50
2022-09-13T03:04:45.062Z,90.50
2022-09-13T03:07:33.481Z,90.60
2022-09-13T03:10:23.450Z,90.60
2022-09-13T03:13:37.867Z,90.60
2022-09-13T03:16:46.469Z,90.60
2022-09-13T03:19:48.538Z,90.60
2022-09-13T03:22:59.457Z,90.60
2022-09-13T03:26:13.096Z,90.60
2022-09-13T03:29:14.522Z,90.60
2022-09-13T03:32:14.209Z,90.60
2022-09-13T03:35:11.314Z,90.60
2022-09-13T03:38:03.439Z,90.60
2022-09-13T03:40:56.951Z,90.60
2022-09-13T03:43:50.767Z,90.60
2022-09-13T03:46:43.368Z,90.60
2022-09-13T03:49:31.976Z,90.60
2022-09-13T03:52:20.945Z,90.60
2022-09-13T03:55:10.064Z,90.60
2022-09-13T03:57:58.444Z,90.60
2022-09-13T04:00:47.039Z,90.60
2022-09-13T04:03:36.620Z,90.60
2022-09-13T04:06:25.073Z,90.60
2022-09-13T04:09:13.173Z,90.60
2022-09-13T04:12:01.954Z,90.60
2022-09-13T04:14:50.081Z,90.60
2022-09-13T04:17:38.421Z,90.60
2022-09-13T04:20:28.412Z,90.60
2022-09-13T04:23:16.877Z,90.60
2022-09-13T04:26:06.006Z,90.60
2022-09-13T04:28:54.862Z,90.60
2022-09-13T04:31:43.778Z,90.60
2022-09-13T04:34:32.235Z,90.60
2022-09-13T04:37:23.472Z,90.60
2022-09-13T04:40:12.328Z,90.60
2022-09-13T04:43:02.365Z,90.60
2022-09-13T04:45:51.083Z,90.60
2022-09-13T04:48:39.313Z,90.60
2022-09-13T04:51:27.528Z,90.60
2022-09-13T04:54:17.456Z,90.60
2022-09-13T04:57:06.609Z,90.50
2022-09-13T04:59:55.132Z,90.50
2022-09-13T05:02:43.482Z,90.60
2022-09-13T05:05:32.603Z,90.60
2022-09-13T05:08:20.920Z,90.50
2022-09-13T05:11:11.400Z,90.60
2022-09-13T05:14:01.491Z,90.50
2022-09-13T05:16:49.973Z,90.50
2022-09-13T05:19:38.645Z,90.60
2022-09-13T05:22:26.882Z,90.50
2022-09-13T05:25:15.773Z,90.60
2022-09-13T05:28:05.660Z,90.60
2022-09-13T05:30:58.339Z,90.60
2022-09-13T05:33:48.416Z,90.60
2022-09-13T05:36:36.701Z,90.60
2022-09-13T05:39:48.474Z,90.60
2022-09-13T05:42:33.596Z,90.60
2022-09-13T05:45:23.315Z,90.60
2022-09-13T05:48:12.086Z,90.70
2022-09-13T05:51:07.171Z,90.70
2022-09-13T05:53:56.303Z,90.70
2022-09-13T05:56:44.643Z,90.70
2022-09-13T05:59:33.357Z,90.80
2022-09-13T06:02:23.476Z,90.80
2022-09-13T06:05:12.430Z,90.80
2022-09-13T06:08:00.628Z,90.70
2022-09-13T06:10:56.180Z,90.80
2022-09-13T06:13:44.624Z,90.80
2022-09-13T06:16:33.394Z,90.80
2022-09-13T06:19:23.321Z,90.80
2022-09-13T06:22:11.556Z,90.80
2022-09-13T06:25:00.058Z,90.80
2022-09-13T06:27:50.130Z,90.80
2022-09-13T06:30:38.608Z,90.80
2022-09-13T06:33:27.652Z,90.80
2022-09-13T06:36:20.097Z,90.80
2022-09-13T06:39:10.087Z,90.80
2022-09-13T06:41:58.303Z,90.80
2022-09-13T06:45:00.362Z,90.80
2022-09-13T06:47:48.597Z,90.80
2022-09-13T06:50:37.098Z,90.80
2022-09-13T06:53:28.892Z,90.80
2022-09-13T06:56:17.927Z,90.80
2022-09-13T06:59:08.524Z,90.80
2022-09-13T07:01:57.370Z,90.70
2022-09-13T07:04:45.708Z,90.70
2022-09-13T07:07:34.329Z,90.70
2022-09-13T07:10:24.175Z,90.70
2022-09-13T07:13:12.639Z,90.70
2022-09-13T07:16:03.793Z,90.90
2022-09-13T07:18:53.626Z,90.70
2022-09-13T07:21:41.851Z,90.70
2022-09-13T07:24:30.165Z,90.70
2022-09-13T07:27:20.180Z,90.70
2022-09-13T07:30:09.939Z,90.70
2022-09-13T07:32:58.455Z,90.60
2022-09-13T07:35:47.110Z,90.60
2022-09-13T07:38:36.865Z,90.60
2022-09-13T07:41:26.865Z,90.60
2022-09-13T07:44:16.877Z,90.60
2022-09-13T07:47:05.426Z,90.60
2022-09-13T07:49:53.567Z,90.60
2022-09-13T07:52:41.502Z,90.60
2022-09-13T07:55:31.293Z,90.60
2022-09-13T07:58:20.022Z,90.60
2022-09-13T08:01:12.298Z,90.60
2022-09-13T08:04:02.408Z,90.60
2022-09-13T08:06:51.138Z,90.60
2022-09-13T08:09:39.379Z,90.60
2022-09-13T08:12:27.694Z,90.60
2022-09-13T08:15:16.264Z,90.60
2022-09-13T08:18:07.853Z,90.60
2022-09-13T08:20:58.447Z,90.60
2022-09-13T08:23:46.896Z,90.60
2022-09-13T08:26:36.656Z,90.60
2022-09-13T08:29:25.370Z,90.60
2022-09-13T08:32:14.033Z,90.60
2022-09-13T08:35:03.929Z,90.60
2022-09-13T08:37:52.598Z,90.70
2022-09-13T08:40:42.967Z,90.70
2022-09-13T08:43:43.677Z,90.70
2022-09-13T08:46:36.223Z,90.60
2022-09-13T08:49:30.190Z,90.60
2022-09-13T08:52:30.580Z,90.60
2022-09-13T08:55:29.627Z,90.60
2022-09-13T08:59:00.511Z,90.60
2022-09-13T09:01:57.674Z,90.60
2022-09-13T09:04:50.925Z,90.70
2022-09-13T09:07:45.219Z,90.70
2022-09-13T09:10:36.836Z,90.70
2022-09-13T09:13:31.116Z,90.70
2022-09-13T09:16:31.737Z,90.70
2022-09-13T09:19:24.376Z,90.70
2022-09-13T09:22:18.019Z,90.70
2022-09-13T09:25:12.383Z,90.80
2022-09-13T09:28:01.310Z,90.70
2022-09-13T09:30:58.911Z,90.70
2022-09-13T09:34:02.134Z,90.80
2022-09-13T09:37:01.036Z,90.70
2022-09-13T09:39:51.119Z,90.80
2022-09-13T09:42:44.203Z,90.80
2022-09-13T09:45:35.917Z,90.80
2022-09-13T09:48:26.003Z,90.80
2022-09-13T09:51:16.899Z,90.80
2022-09-13T09:54:07.167Z,90.80
2022-09-13T09:56:56.307Z,90.80
2022-09-13T09:59:46.332Z,90.80
2022-09-13T10:02:38.272Z,90.80
2022-09-13T10:05:28.952Z,90.80
2022-09-13T10:08:29.719Z,90.80
2022-09-13T10:11:20.439Z,90.80
2022-09-13T10:14:30.901Z,90.80
2022-09-13T10:17:25.511Z,90.80
2022-09-13T10:20:26.761Z,90.80
2022-09-13T10:23:21.319Z,90.80
2022-09-13T10:26:13.467Z,90.80
2022-09-13T10:29:06.787Z,90.80
2022-09-13T10:31:57.868Z,90.80
2022-09-13T10:34:47.839Z,90.80
2022-09-13T10:37:36.638Z,90.80
2022-09-13T10:40:30.176Z,90.80
2022-09-13T10:43:20.053Z,90.80
2022-09-13T10:46:15.466Z,90.80
2022-09-13T10:49:03.432Z,90.80
2022-09-13T10:51:53.141Z,90.80
2022-09-13T10:54:41.426Z,90.80
2022-09-13T10:57:34.907Z,90.80
2022-09-13T11:00:25.723Z,90.80
2022-09-13T11:03:29.556Z,90.70
2022-09-13T11:06:22.053Z,90.70
2022-09-13T11:09:16.095Z,90.70
2022-09-13T11:12:18.525Z,90.70
2022-09-13T11:15:18.524Z,90.80
2022-09-13T11:18:26.847Z,90.70
2022-09-13T11:21:28.728Z,90.80
2022-09-13T11:24:40.369Z,90.80
2022-09-13T11:27:37.716Z,90.80
2022-09-13T11:30:30.068Z,90.80
2022-09-13T11:33:30.454Z,90.80
2022-09-13T11:36:38.902Z,90.80
2022-09-13T11:39:33.911Z,90.80
2022-09-13T11:42:36.039Z,90.80
2022-09-13T11:45:27.271Z,90.80
2022-09-13T11:48:49.662Z,90.80
2022-09-13T11:51:51.136Z,90.80
2022-09-13T11:55:00.727Z,90.80
2022-09-13T11:57:52.698Z,90.80
2022-09-13T12:00:51.117Z,90.80
2022-09-13T12:03:49.123Z,90.80
2022-09-13T12:06:41.689Z,90.80
2022-09-13T12:09:34.478Z,90.80
2022-09-13T12:12:27.065Z,90.80
2022-09-13T12:15:19.223Z,90.80
2022-09-13T12:18:14.653Z,90.80
2022-09-13T12:21:07.507Z,90.80
2022-09-13T12:24:02.806Z,90.80
2022-09-13T12:26:57.089Z,90.90
2022-09-13T12:29:52.405Z,90.90
2022-09-13T12:32:41.138Z,90.90
2022-09-13T12:35:32.761Z,90.90
2022-09-13T12:38:51.624Z,90.90
2022-09-13T12:41:54.473Z,90.90
2022-09-13T12:45:14.185Z,90.90
2022-09-13T12:48:16.335Z,90.90
2022-09-13T12:51:15.939Z,90.90
2022-09-13T12:54:24.876Z,90.90
2022-09-13T12:57:27.883Z,90.90
2022-09-13T13:00:23.194Z,90.90
2022-09-13T13:03:17.346Z,90.90
2022-09-13T13:06:12.951Z,90.90
2022-09-13T13:09:05.722Z,90.90
2022-09-13T13:11:54.627Z,90.90
2022-09-13T13:14:53.891Z,90.90
2022-09-13T13:17:47.346Z,90.90
2022-09-13T13:20:49.538Z,90.90
2022-09-13T13:23:39.186Z,90.90
2022-09-13T13:26:49.317Z,90.90
2022-09-13T13:29:37.779Z,90.90
2022-09-13T13:32:26.299Z,90.90
2022-09-13T13:35:32.563Z,90.90
2022-09-13T13:38:47.937Z,90.90
2022-09-13T13:41:50.256Z,90.90
2022-09-13T13:45:26.506Z,90.90
2022-09-13T13:48:16.371Z,90.90
2022-09-13T13:51:22.227Z,90.90
2022-09-13T13:54:32.072Z,90.90
2022-09-13T13:57:26.212Z,90.90
2022-09-13T14:00:17.155Z,90.90
2022-09-13T14:03:17.863Z,90.90
2022-09-13T14:06:15.575Z,90.90
2022-09-13T14:09:17.559Z,90.90
2022-09-13T14:12:22.591Z,90.90
2022-09-13T14:15:26.663Z,90.90
2022-09-13T14:18:52.098Z,90.90
2022-09-13T14:21:42.688Z,90.90
2022-09-13T14:24:38.281Z,90.90
2022-09-13T14:27:29.004Z,90.90
2022-09-13T14:30:22.462Z,90.90
2022-09-13T14:33:30.882Z,90.90
2022-09-13T14:36:22.891Z,90.90
2022-09-13T14:39:11.901Z,90.90
2022-09-13T14:42:03.400Z,90.90
2022-09-13T14:44:51.703Z,90.90
2022-09-13T14:47:48.737Z,90.90
2022-09-13T14:50:41.278Z,90.90
2022-09-13T14:53:33.475Z,90.90
2022-09-13T14:56:31.337Z,90.90
2022-09-13T14:59:29.062Z,90.90
2022-09-13T15:02:21.977Z,90.90
2022-09-13T15:05:15.641Z,90.90
2022-09-13T15:08:27.626Z,90.90
2022-09-13T15:11:27.701Z,90.90
2022-09-13T15:14:25.961Z,90.90
2022-09-13T15:17:15.247Z,90.90
2022-09-13T15:20:06.380Z,90.90
2022-09-13T15:22:55.109Z,90.90
2022-09-13T15:25:51.452Z,90.90
2022-09-13T15:28:51.071Z,91.00
2022-09-13T15:31:40.953Z,91.00
2022-09-13T15:34:29.461Z,90.90
2022-09-13T15:37:17.592Z,90.90
2022-09-13T15:40:21.145Z,90.90
2022-09-13T15:43:09.644Z,90.90
2022-09-13T15:45:59.669Z,90.90
2022-09-13T15:48:53.978Z,90.90
2022-09-13T15:51:44.985Z,90.90
2022-09-13T15:54:34.666Z,90.90
2022-09-13T15:57:25.816Z,90.80
2022-09-13T16:00:18.135Z,90.80
2022-09-13T16:03:06.533Z,90.80
2022-09-13T16:05:56.540Z,90.80
2022-09-13T16:08:45.387Z,90.80
2022-09-13T16:11:33.489Z,90.80
2022-09-13T16:14:22.237Z,90.70
2022-09-13T16:17:22.150Z,90.80
2022-09-13T16:20:14.559Z,90.80
2022-09-13T16:23:04.236Z,90.70
2022-09-13T16:25:57.117Z,90.70
2022-09-13T16:28:45.566Z,90.70
2022-09-13T16:31:34.528Z,90.70
2022-09-13T16:34:23.145Z,90.70
2022-09-13T16:37:14.410Z,90.70
2022-09-13T16:40:05.022Z,90.70
2022-09-13T16:42:54.294Z,90.70
2022-09-13T16:45:45.038Z,90.70
2022-09-13T16:48:33.538Z,90.70
2022-09-13T16:51:23.431Z,90.70
2022-09-13T16:54:11.670Z,90.70
2022-09-13T16:57:01.510Z,90.80
2022-09-13T16:59:49.949Z,90.80
2022-09-13T17:02:38.424Z,90.70
2022-09-13T17:05:27.433Z,90.80
2022-09-13T17:08:15.709Z,90.80
2022-09-13T17:11:07.515Z,90.80
2022-09-13T17:13:57.487Z,90.70
2022-09-13T17:16:48.376Z,90.80
2022-09-13T17:19:37.069Z,90.80
2022-09-13T17:22:25.829Z,90.80
2022-09-13T17:25:16.203Z,90.80
2022-09-13T17:28:06.039Z,90.80
2022-09-13T17:30:58.453Z,90.80
2022-09-13T17:33:50.123Z,90.80
2022-09-13T17:36:40.411Z,90.80
2022-09-13T17:39:29.082Z,90.80
2022-09-13T17:42:21.205Z,90.80
2022-09-13T17:45:13.052Z,90.80
2022-09-13T17:48:03.191Z,90.90
2022-09-13T17:50:51.739Z,90.90
2022-09-13T17:53:40.643Z,90.90
2022-09-13T17:56:31.334Z,90.90
2022-09-13T17:59:22.252Z,90.90
2022-09-13T18:02:11.970Z,90.90
2022-09-13T18:05:05.427Z,90.90
2022-09-13T18:07:55.427Z,90.90
2022-09-13T18:11:04.170Z,90.90
2022-09-13T18:13:53.266Z,90.90
2022-09-13T18:16:42.132Z,90.90
2022-09-13T18:19:45.846Z,90.90
2022-09-13T18:22:36.059Z,90.90
2022-09-13T18:25:24.658Z,90.90
2022-09-13T18:28:13.073Z,90.90
2022-09-13T18:31:03.320Z,90.90
2022-09-13T18:33:57.020Z,91.00
2022-09-13T18:36:45.131Z,91.00
2022-09-13T18:39:35.997Z,91.00
2022-09-13T18:42:24.144Z,90.90
2022-09-13T18:45:13.502Z,90.90
2022-09-13T18:48:01.601Z,90.90
2022-09-13T18:50:50.232Z,90.90
2022-09-13T18:53:39.392Z,91.20
2022-09-13T18:56:30.401Z,91.00
2022-09-13T18:59:18.443Z,90.90
2022-09-13T19:02:07.376Z,91.00
2022-09-13T19:04:55.392Z,90.90
2022-09-13T19:07:43.881Z,91.00
2022-09-13T19:10:32.613Z,91.00
2022-09-13T19:13:23.940Z,91.00
2022-09-13T19:16:15.715Z,91.20
2022-09-13T19:19:04.676Z,90.90
2022-09-13T19:21:53.224Z,91.00
2022-09-13T19:24:41.574Z,90.90
2022-09-13T19:27:29.895Z,91.00
2022-09-13T19:30:19.968Z,90.90
2022-09-13T19:33:08.171Z,90.90
2022-09-13T19:35:56.599Z,91.00
2022-09-13T19:38:45.376Z,90.90
2022-09-13T19:41:34.447Z,91.00
2022-09-13T19:44:23.179Z,91.00
2022-09-13T19:50:22.242Z,91.00
2022-09-13T19:53:10.226Z,90.90
2022-09-13T19:55:59.417Z,91.00
2022-09-13T19:58:48.327Z,91.00
2022-09-13T20:01:39.832Z,91.00
2022-09-13T20:04:30.583Z,91.00
2022-09-13T20:07:19.320Z,91.00
2022-09-13T20:10:08.488Z,91.00
2022-09-13T20:12:57.663Z,91.00
2022-09-13T20:15:46.028Z,91.00
2022-09-13T20:18:34.614Z,91.00
2022-09-13T20:21:24.434Z,91.00
2022-09-13T20:24:12.956Z,91.00
2022-09-13T20:27:01.341Z,91.00
2022-09-13T20:29:49.997Z,91.00
2022-09-13T20:32:38.535Z,91.00
2022-09-13T20:35:27.379Z,91.00
2022-09-13T20:38:18.850Z,91.00
2022-09-13T20:41:09.132Z,91.00
2022-09-13T20:43:59.384Z,91.00
2022-09-13T20:46:48.205Z,91.00
2022-09-13T20:49:37.008Z,91.00
2022-09-13T20:52:25.497Z,91.00
2022-09-13T20:55:15.225Z,91.00
2022-09-13T20:58:06.980Z,91.00
2022-09-13T21:00:55.727Z,91.00
2022-09-13T21:03:44.895Z,91.00
2022-09-13T21:06:39.340Z,91.00
2022-09-13T21:09:26.659Z,91.00
2022-09-13T21:12:17.150Z,91.00
2022-09-13T21:15:06.958Z,91.00
2022-09-13T21:17:55.558Z,91.00
2022-09-13T21:20:43.881Z,91.00
2022-09-13T21:23:34.028Z,91.00
2022-09-13T21:26:25.076Z,91.00
2022-09-13T21:29:15.178Z,91.00
2022-09-13T21:32:04.088Z,91.00
2022-09-13T21:34:52.964Z,91.00
2022-09-13T21:37:41.563Z,91.00
2022-09-13T21:40:29.875Z,91.00
2022-09-13T21:43:19.583Z,91.00
2022-09-13T21:46:16.640Z,91.00
2022-09-13T21:49:08.377Z,91.00
2022-09-13T21:51:56.902Z,91.00
2022-09-13T21:54:45.469Z,91.00
2022-09-13T21:57:33.654Z,91.00
2022-09-13T22:00:22.970Z,91.00
2022-09-13T22:03:12.904Z,91.00
2022-09-13T22:06:01.670Z,91.00
2022-09-13T22:08:52.709Z,91.00
2022-09-13T22:11:43.728Z,91.00
2022-09-13T22:14:32.274Z,91.00
2022-09-13T22:17:20.374Z,91.00
2022-09-13T22:20:11.037Z,91.00
2022-09-13T22:22:59.128Z,91.00
2022-09-13T22:25:47.528Z,91.00
2022-09-13T22:28:36.602Z,91.00
2022-09-13T22:31:26.547Z,91.00
2022-09-13T22:34:16.997Z,91.00
2022-09-13T22:37:07.312Z,91.00
2022-09-13T22:39:57.503Z,91.00
2022-09-13T22:42:45.711Z,91.00
2022-09-13T22:45:34.409Z,91.00
2022-09-13T22:48:23.087Z,91.00
2022-09-13T22:51:13.461Z,90.90
2022-09-13T22:54:06.996Z,91.00
2022-09-13T22:56:55.953Z,91.00
2022-09-13T22:59:44.708Z,91.00
2022-09-13T23:02:33.151Z,91.00
2022-09-13T23:05:21.678Z,91.00
2022-09-13T23:08:11.232Z,91.00
2022-09-13T23:11:10.818Z,91.00
2022-09-13T23:14:01.342Z,91.00
2022-09-13T23:16:52.115Z,91.00
2022-09-13T23:19:40.579Z,91.00
2022-09-13T23:22:29.244Z,91.00
2022-09-13T23:25:17.571Z,91.00
2022-09-13T23:28:07.220Z,91.00
2022-09-13T23:30:55.584Z,91.00
2022-09-13T23:33:46.110Z,91.00
2022-09-13T23:36:35.864Z,91.00
2022-09-13T23:39:24.591Z,91.00
2022-09-13T23:42:13.005Z,91.00
2022-09-13T23:45:02.677Z,91.00
2022-09-13T23:47:51.586Z,91.00
2022-09-13T23:50:40.333Z,91.20
2022-09-13T23:53:29.436Z,91.00
2022-09-13T23:56:18.157Z,91.00
2022-09-13T23:59:07.798Z,91.00
